sensor_id;sensor_type;location;lat;lon;timestamp;temperature;humidity
1377;DHT22;682;52.502;13.488;2023-04-03T00:02:15;1.80;1.00
1377;DHT22;682;52.502;13.488;2023-04-03T00:04:43;1.80;1.00
1377;DHT22;682;52.502;13.488;2023-04-03T00:07:10;1.80;1.00
1377;DHT22;682;52.502;13.488;2023-04-03T00:09:39;1.80;1.00
1377;DHT22;682;52.502;13.488;2023-04-03T00:12:06;1.70;1.00
1377;DHT22;682;52.502;13.488;2023-04-03T00:14:33;1.70;1.00
1377;DHT22;682;52.502;13.488;2023-04-03T00:17:00;1.70;1.00
1377;DHT22;682;52.502;13.488;2023-04-03T00:19:27;1.60;1.00
1377;DHT22;682;52.502;13.488;2023-04-03T00:21:54;1.60;1.00
1377;DHT22;682;52.502;13.488;2023-04-03T00:24:21;1.60;1.00
1377;DHT22;682;52.502;13.488;2023-04-03T00:26:49;1.60;1.00
1377;DHT22;682;52.502;13.488;2023-04-03T00:29:16;1.60;1.00
1377;DHT22;682;52.502;13.488;2023-04-03T00:31:43;1.60;1.00
1377;DHT22;682;52.502;13.488;2023-04-03T00:34:10;1.60;1.00
1377;DHT22;682;52.502;13.488;2023-04-03T00:36:37;1.60;1.00
1377;DHT22;682;52.502;13.488;2023-04-03T00:39:04;1.60;1.00
1377;DHT22;682;52.502;13.488;2023-04-03T00:41:32;1.60;1.00
1377;DHT22;682;52.502;13.488;2023-04-03T00:44:00;1.60;1.00
1377;DHT22;682;52.502;13.488;2023-04-03T00:46:27;1.50;1.00
1377;DHT22;682;52.502;13.488;2023-04-03T00:48:55;1.50;1.00
1377;DHT22;682;52.502;13.488;2023-04-03T00:51:24;1.50;1.00
1377;DHT22;682;52.502;13.488;2023-04-03T00:53:54;1.50;1.00
1377;DHT22;682;52.502;13.488;2023-04-03T00:56:24;1.50;1.00
1377;DHT22;682;52.502;13.488;2023-04-03T00:58:54;1.50;1.00
1377;DHT22;682;52.502;13.488;2023-04-03T01:01:25;1.60;1.00
1377;DHT22;682;52.502;13.488;2023-04-03T01:03:52;1.60;1.00
1377;DHT22;682;52.502;13.488;2023-04-03T01:06:26;1.60;1.00
1377;DHT22;682;52.502;13.488;2023-04-03T01:08:55;1.60;1.00
1377;DHT22;682;52.502;13.488;2023-04-03T01:11:22;1.60;1.00
1377;DHT22;682;52.502;13.488;2023-04-03T01:13:49;1.60;1.00
1377;DHT22;682;52.502;13.488;2023-04-03T01:16:18;1.60;1.00
1377;DHT22;682;52.502;13.488;2023-04-03T01:18:47;1.60;1.00
1377;DHT22;682;52.502;13.488;2023-04-03T01:21:34;1.60;1.00
1377;DHT22;682;52.502;13.488;2023-04-03T01:26:58;1.70;1.00
1377;DHT22;682;52.502;13.488;2023-04-03T01:29:25;1.70;1.00
1377;DHT22;682;52.502;13.488;2023-04-03T01:31:56;1.70;1.00
1377;DHT22;682;52.502;13.488;2023-04-03T01:34:24;1.70;1.00
1377;DHT22;682;52.502;13.488;2023-04-03T01:36:51;1.70;1.00
1377;DHT22;682;52.502;13.488;2023-04-03T01:39:19;1.70;1.00
1377;DHT22;682;52.502;13.488;2023-04-03T01:41:46;1.70;1.00
1377;DHT22;682;52.502;13.488;2023-04-03T01:44:14;1.70;1.00
1377;DHT22;682;52.502;13.488;2023-04-03T01:46:42;1.70;1.00
1377;DHT22;682;52.502;13.488;2023-04-03T01:49:10;1.70;1.00
1377;DHT22;682;52.502;13.488;2023-04-03T01:51:37;1.70;1.00
1377;DHT22;682;52.502;13.488;2023-04-03T01:54:04;1.60;1.00
1377;DHT22;682;52.502;13.488;2023-04-03T01:56:31;1.50;1.00
1377;DHT22;682;52.502;13.488;2023-04-03T01:58:58;1.60;1.00
1377;DHT22;682;52.502;13.488;2023-04-03T02:01:25;1.50;1.00
1377;DHT22;682;52.502;13.488;2023-04-03T02:03:52;1.50;1.00
1377;DHT22;682;52.502;13.488;2023-04-03T02:06:21;1.50;1.00
1377;DHT22;682;52.502;13.488;2023-04-03T02:08:48;1.40;1.00
1377;DHT22;682;52.502;13.488;2023-04-03T02:11:15;1.50;1.00
1377;DHT22;682;52.502;13.488;2023-04-03T02:13:42;1.40;1.00
1377;DHT22;682;52.502;13.488;2023-04-03T02:16:10;1.40;1.00
1377;DHT22;682;52.502;13.488;2023-04-03T02:18:38;1.40;1.00
1377;DHT22;682;52.502;13.488;2023-04-03T02:21:05;1.40;1.00
1377;DHT22;682;52.502;13.488;2023-04-03T02:23:33;1.40;1.00
1377;DHT22;682;52.502;13.488;2023-04-03T02:26:09;1.40;1.00
1377;DHT22;682;52.502;13.488;2023-04-03T02:28:37;1.40;1.00
1377;DHT22;682;52.502;13.488;2023-04-03T02:31:05;1.40;1.00
1377;DHT22;682;52.502;13.488;2023-04-03T02:33:33;1.40;1.00
1377;DHT22;682;52.502;13.488;2023-04-03T02:36:03;1.40;1.00
1377;DHT22;682;52.502;13.488;2023-04-03T02:38:30;1.30;1.00
1377;DHT22;682;52.502;13.488;2023-04-03T02:41:01;1.30;1.00
1377;DHT22;682;52.502;13.488;2023-04-03T02:43:29;1.30;1.00
1377;DHT22;682;52.502;13.488;2023-04-03T02:45:56;1.30;1.00
1377;DHT22;682;52.502;13.488;2023-04-03T02:48:23;1.30;1.00
1377;DHT22;682;52.502;13.488;2023-04-03T02:50:51;1.30;1.00
1377;DHT22;682;52.502;13.488;2023-04-03T02:53:19;1.30;1.00
1377;DHT22;682;52.502;13.488;2023-04-03T02:55:46;1.30;1.00
1377;DHT22;682;52.502;13.488;2023-04-03T02:58:14;1.30;1.00
1377;DHT22;682;52.502;13.488;2023-04-03T03:00:41;1.30;1.00
1377;DHT22;682;52.502;13.488;2023-04-03T03:03:11;1.30;1.00
1377;DHT22;682;52.502;13.488;2023-04-03T03:05:39;1.30;1.00
1377;DHT22;682;52.502;13.488;2023-04-03T03:08:06;1.30;1.00
1377;DHT22;682;52.502;13.488;2023-04-03T03:10:33;1.30;1.00
1377;DHT22;682;52.502;13.488;2023-04-03T03:13:00;1.20;1.00
1377;DHT22;682;52.502;13.488;2023-04-03T03:15:28;1.20;1.00
1377;DHT22;682;52.502;13.488;2023-04-03T03:17:55;1.20;1.00
1377;DHT22;682;52.502;13.488;2023-04-03T03:20:22;1.20;1.00
1377;DHT22;682;52.502;13.488;2023-04-03T03:22:49;1.10;1.00
1377;DHT22;682;52.502;13.488;2023-04-03T03:25:16;1.10;1.00
1377;DHT22;682;52.502;13.488;2023-04-03T03:27:43;1.10;1.00
1377;DHT22;682;52.502;13.488;2023-04-03T03:30:11;1.10;1.00
1377;DHT22;682;52.502;13.488;2023-04-03T03:32:39;1.00;1.00
1377;DHT22;682;52.502;13.488;2023-04-03T03:35:07;0.90;1.00
1377;DHT22;682;52.502;13.488;2023-04-03T03:37:34;1.00;1.00
1377;DHT22;682;52.502;13.488;2023-04-03T03:40:01;0.90;1.00
1377;DHT22;682;52.502;13.488;2023-04-03T03:42:28;0.90;1.00
1377;DHT22;682;52.502;13.488;2023-04-03T03:44:55;0.80;1.00
1377;DHT22;682;52.502;13.488;2023-04-03T03:47:22;0.90;1.00
1377;DHT22;682;52.502;13.488;2023-04-03T03:49:51;0.90;1.00
1377;DHT22;682;52.502;13.488;2023-04-03T03:52:18;0.90;1.00
1377;DHT22;682;52.502;13.488;2023-04-03T03:54:45;0.80;1.00
1377;DHT22;682;52.502;13.488;2023-04-03T03:57:12;0.80;1.00
1377;DHT22;682;52.502;13.488;2023-04-03T03:59:39;0.80;1.00
1377;DHT22;682;52.502;13.488;2023-04-03T04:02:07;0.80;1.00
1377;DHT22;682;52.502;13.488;2023-04-03T04:04:34;0.80;1.00
1377;DHT22;682;52.502;13.488;2023-04-03T04:07:03;0.80;1.00
1377;DHT22;682;52.502;13.488;2023-04-03T04:09:32;0.70;1.00
1377;DHT22;682;52.502;13.488;2023-04-03T04:11:59;0.70;1.00
1377;DHT22;682;52.502;13.488;2023-04-03T04:14:26;0.70;1.00
1377;DHT22;682;52.502;13.488;2023-04-03T04:16:55;0.70;1.00
1377;DHT22;682;52.502;13.488;2023-04-03T04:19:22;0.70;1.00
1377;DHT22;682;52.502;13.488;2023-04-03T04:21:49;0.80;1.00
1377;DHT22;682;52.502;13.488;2023-04-03T04:24:18;0.80;1.00
1377;DHT22;682;52.502;13.488;2023-04-03T04:26:45;0.70;1.00
1377;DHT22;682;52.502;13.488;2023-04-03T04:29:12;0.80;1.00
1377;DHT22;682;52.502;13.488;2023-04-03T04:31:39;0.80;1.00
1377;DHT22;682;52.502;13.488;2023-04-03T04:34:06;0.80;1.00
1377;DHT22;682;52.502;13.488;2023-04-03T04:36:33;0.80;1.00
1377;DHT22;682;52.502;13.488;2023-04-03T04:39:00;0.70;1.00
1377;DHT22;682;52.502;13.488;2023-04-03T04:41:30;0.70;1.00
1377;DHT22;682;52.502;13.488;2023-04-03T04:43:57;0.70;1.00
1377;DHT22;682;52.502;13.488;2023-04-03T04:46:24;0.70;1.00
1377;DHT22;682;52.502;13.488;2023-04-03T04:48:51;0.70;1.00
1377;DHT22;682;52.502;13.488;2023-04-03T04:51:19;0.70;1.00
1377;DHT22;682;52.502;13.488;2023-04-03T04:53:46;0.80;1.00
1377;DHT22;682;52.502;13.488;2023-04-03T04:56:13;0.80;1.00
1377;DHT22;682;52.502;13.488;2023-04-03T04:58:41;0.80;1.00
1377;DHT22;682;52.502;13.488;2023-04-03T05:01:10;0.80;1.00
1377;DHT22;682;52.502;13.488;2023-04-03T05:03:37;0.80;1.00
1377;DHT22;682;52.502;13.488;2023-04-03T05:06:04;0.80;1.00
1377;DHT22;682;52.502;13.488;2023-04-03T05:08:31;0.70;1.00
1377;DHT22;682;52.502;13.488;2023-04-03T05:10:59;0.80;1.00
1377;DHT22;682;52.502;13.488;2023-04-03T05:13:26;0.80;1.00
1377;DHT22;682;52.502;13.488;2023-04-03T05:15:54;0.90;1.00
1377;DHT22;682;52.502;13.488;2023-04-03T05:18:21;0.90;1.00
1377;DHT22;682;52.502;13.488;2023-04-03T05:20:49;0.90;1.00
1377;DHT22;682;52.502;13.488;2023-04-03T05:23:19;1.00;1.00
1377;DHT22;682;52.502;13.488;2023-04-03T05:25:46;1.00;1.00
1377;DHT22;682;52.502;13.488;2023-04-03T05:28:15;1.00;1.00
1377;DHT22;682;52.502;13.488;2023-04-03T05:30:42;1.10;1.00
1377;DHT22;682;52.502;13.488;2023-04-03T05:33:11;1.20;1.00
1377;DHT22;682;52.502;13.488;2023-04-03T05:35:39;1.20;1.00
1377;DHT22;682;52.502;13.488;2023-04-03T05:38:07;1.30;1.00
1377;DHT22;682;52.502;13.488;2023-04-03T05:40:34;1.40;1.00
1377;DHT22;682;52.502;13.488;2023-04-03T05:43:02;1.50;1.00
1377;DHT22;682;52.502;13.488;2023-04-03T05:45:29;1.50;1.00
1377;DHT22;682;52.502;13.488;2023-04-03T05:47:56;1.60;1.00
1377;DHT22;682;52.502;13.488;2023-04-03T05:50:25;1.80;1.00
1377;DHT22;682;52.502;13.488;2023-04-03T05:52:53;1.80;1.00
1377;DHT22;682;52.502;13.488;2023-04-03T05:55:22;2.00;1.00
1377;DHT22;682;52.502;13.488;2023-04-03T05:57:49;2.00;1.00
1377;DHT22;682;52.502;13.488;2023-04-03T06:00:17;2.10;1.00
1377;DHT22;682;52.502;13.488;2023-04-03T06:02:44;2.20;1.00
1377;DHT22;682;52.502;13.488;2023-04-03T06:05:11;2.30;1.00
1377;DHT22;682;52.502;13.488;2023-04-03T06:07:40;2.50;1.00
1377;DHT22;682;52.502;13.488;2023-04-03T06:10:07;2.60;1.00
1377;DHT22;682;52.502;13.488;2023-04-03T06:12:35;2.60;1.00
1377;DHT22;682;52.502;13.488;2023-04-03T06:15:02;2.70;1.00
1377;DHT22;682;52.502;13.488;2023-04-03T06:17:29;2.80;1.00
1377;DHT22;682;52.502;13.488;2023-04-03T06:21:25;2.90;1.00
1377;DHT22;682;52.502;13.488;2023-04-03T06:23:21;2.90;1.00
1377;DHT22;682;52.502;13.488;2023-04-03T06:25:48;3.00;1.00
1377;DHT22;682;52.502;13.488;2023-04-03T06:28:16;3.10;1.00
1377;DHT22;682;52.502;13.488;2023-04-03T06:30:44;3.10;1.00
1377;DHT22;682;52.502;13.488;2023-04-03T06:33:11;3.20;1.00
1377;DHT22;682;52.502;13.488;2023-04-03T06:35:38;3.20;1.00
1377;DHT22;682;52.502;13.488;2023-04-03T06:38:06;3.30;1.00
1377;DHT22;682;52.502;13.488;2023-04-03T06:40:38;3.40;1.00
1377;DHT22;682;52.502;13.488;2023-04-03T06:43:05;3.50;1.00
1377;DHT22;682;52.502;13.488;2023-04-03T06:45:32;3.60;1.00
1377;DHT22;682;52.502;13.488;2023-04-03T06:48:00;3.70;1.00
1377;DHT22;682;52.502;13.488;2023-04-03T06:50:27;3.80;1.00
1377;DHT22;682;52.502;13.488;2023-04-03T06:52:53;3.80;1.00
1377;DHT22;682;52.502;13.488;2023-04-03T06:55:20;4.00;1.00
1377;DHT22;682;52.502;13.488;2023-04-03T06:57:49;4.10;1.00
1377;DHT22;682;52.502;13.488;2023-04-03T07:00:18;4.10;1.00
1377;DHT22;682;52.502;13.488;2023-04-03T07:02:45;4.20;1.00
1377;DHT22;682;52.502;13.488;2023-04-03T07:05:12;4.20;1.00
1377;DHT22;682;52.502;13.488;2023-04-03T07:07:40;4.20;1.00
1377;DHT22;682;52.502;13.488;2023-04-03T07:10:09;4.30;1.00
1377;DHT22;682;52.502;13.488;2023-04-03T07:12:36;4.40;1.00
1377;DHT22;682;52.502;13.488;2023-04-03T07:15:14;4.40;1.00
1377;DHT22;682;52.502;13.488;2023-04-03T07:17:42;4.50;1.00
1377;DHT22;682;52.502;13.488;2023-04-03T07:20:09;4.60;1.00
1377;DHT22;682;52.502;13.488;2023-04-03T07:22:37;4.70;1.00
1377;DHT22;682;52.502;13.488;2023-04-03T07:25:05;4.90;1.00
1377;DHT22;682;52.502;13.488;2023-04-03T07:27:34;5.20;1.00
1377;DHT22;682;52.502;13.488;2023-04-03T07:30:01;5.20;1.00
1377;DHT22;682;52.502;13.488;2023-04-03T07:32:30;5.40;1.00
1377;DHT22;682;52.502;13.488;2023-04-03T07:34:58;5.60;1.00
1377;DHT22;682;52.502;13.488;2023-04-03T07:37:27;5.70;1.00
1377;DHT22;682;52.502;13.488;2023-04-03T07:39:54;5.80;1.00
1377;DHT22;682;52.502;13.488;2023-04-03T07:42:23;5.90;1.00
1377;DHT22;682;52.502;13.488;2023-04-03T07:44:50;5.70;1.00
1377;DHT22;682;52.502;13.488;2023-04-03T07:47:17;5.70;1.00
1377;DHT22;682;52.502;13.488;2023-04-03T07:49:46;5.50;1.00
1377;DHT22;682;52.502;13.488;2023-04-03T07:52:13;5.50;1.00
1377;DHT22;682;52.502;13.488;2023-04-03T07:54:41;5.60;1.00
1377;DHT22;682;52.502;13.488;2023-04-03T07:57:07;5.50;1.00
1377;DHT22;682;52.502;13.488;2023-04-03T07:59:35;5.70;1.00
1377;DHT22;682;52.502;13.488;2023-04-03T08:02:02;5.90;1.00
1377;DHT22;682;52.502;13.488;2023-04-03T08:04:30;5.90;1.00
1377;DHT22;682;52.502;13.488;2023-04-03T08:06:59;6.10;1.00
1377;DHT22;682;52.502;13.488;2023-04-03T08:09:26;6.60;1.00
1377;DHT22;682;52.502;13.488;2023-04-03T08:11:53;7.10;1.00
1377;DHT22;682;52.502;13.488;2023-04-03T08:14:20;7.40;1.00
1377;DHT22;682;52.502;13.488;2023-04-03T08:16:48;7.30;1.00
1377;DHT22;682;52.502;13.488;2023-04-03T08:19:50;7.10;1.00
1377;DHT22;682;52.502;13.488;2023-04-03T08:22:19;7.00;1.00
1377;DHT22;682;52.502;13.488;2023-04-03T08:24:46;7.00;1.00
1377;DHT22;682;52.502;13.488;2023-04-03T08:27:14;7.10;1.00
1377;DHT22;682;52.502;13.488;2023-04-03T08:29:41;6.90;1.00
1377;DHT22;682;52.502;13.488;2023-04-03T08:32:08;6.60;1.00
1377;DHT22;682;52.502;13.488;2023-04-03T08:34:36;6.70;1.00
1377;DHT22;682;52.502;13.488;2023-04-03T08:37:07;6.90;1.00
1377;DHT22;682;52.502;13.488;2023-04-03T08:39:35;7.00;1.00
1377;DHT22;682;52.502;13.488;2023-04-03T08:42:07;7.10;1.00
1377;DHT22;682;52.502;13.488;2023-04-03T08:44:46;7.00;1.00
1377;DHT22;682;52.502;13.488;2023-04-03T08:47:22;6.90;1.00
1377;DHT22;682;52.502;13.488;2023-04-03T08:49:52;6.80;1.00
1377;DHT22;682;52.502;13.488;2023-04-03T08:52:25;6.80;1.00
1377;DHT22;682;52.502;13.488;2023-04-03T08:54:58;6.50;1.00
1377;DHT22;682;52.502;13.488;2023-04-03T08:57:30;6.30;1.00
1377;DHT22;682;52.502;13.488;2023-04-03T09:00:00;6.50;1.00
1377;DHT22;682;52.502;13.488;2023-04-03T09:02:33;6.70;1.00
1377;DHT22;682;52.502;13.488;2023-04-03T09:05:05;6.80;1.00
1377;DHT22;682;52.502;13.488;2023-04-03T09:07:43;7.10;1.00
1377;DHT22;682;52.502;13.488;2023-04-03T09:10:14;7.60;1.00
1377;DHT22;682;52.502;13.488;2023-04-03T09:12:44;8.00;1.00
1377;DHT22;682;52.502;13.488;2023-04-03T09:15:18;8.10;1.00
1377;DHT22;682;52.502;13.488;2023-04-03T09:17:55;8.20;1.00
1377;DHT22;682;52.502;13.488;2023-04-03T09:20:36;7.90;1.00
1377;DHT22;682;52.502;13.488;2023-04-03T09:23:15;7.70;1.00
1377;DHT22;682;52.502;13.488;2023-04-03T09:25:49;8.20;1.00
1377;DHT22;682;52.502;13.488;2023-04-03T09:28:18;9.30;1.00
1377;DHT22;682;52.502;13.488;2023-04-03T09:30:45;10.00;1.00
1377;DHT22;682;52.502;13.488;2023-04-03T09:33:12;10.40;1.00
1377;DHT22;682;52.502;13.488;2023-04-03T09:35:41;11.10;1.00
1377;DHT22;682;52.502;13.488;2023-04-03T09:38:18;12.30;1.00
1377;DHT22;682;52.502;13.488;2023-04-03T09:40:49;12.40;1.00
1377;DHT22;682;52.502;13.488;2023-04-03T09:43:25;11.70;1.00
1377;DHT22;682;52.502;13.488;2023-04-03T09:45:53;11.10;1.00
1377;DHT22;682;52.502;13.488;2023-04-03T09:48:22;10.60;1.00
1377;DHT22;682;52.502;13.488;2023-04-03T09:50:55;10.30;1.00
1377;DHT22;682;52.502;13.488;2023-04-03T09:53:29;10.50;1.00
1377;DHT22;682;52.502;13.488;2023-04-03T09:55:59;10.40;1.00
1377;DHT22;682;52.502;13.488;2023-04-03T09:58:30;9.90;1.00
1377;DHT22;682;52.502;13.488;2023-04-03T10:01:01;9.50;1.00
1377;DHT22;682;52.502;13.488;2023-04-03T10:03:30;9.50;1.00
1377;DHT22;682;52.502;13.488;2023-04-03T10:05:58;9.70;1.00
1377;DHT22;682;52.502;13.488;2023-04-03T10:08:28;10.70;1.00
1377;DHT22;682;52.502;13.488;2023-04-03T10:11:15;11.80;1.00
1377;DHT22;682;52.502;13.488;2023-04-03T10:13:53;11.70;1.00
1377;DHT22;682;52.502;13.488;2023-04-03T10:16:35;11.50;1.00
1377;DHT22;682;52.502;13.488;2023-04-03T10:19:24;10.80;1.00
1377;DHT22;682;52.502;13.488;2023-04-03T10:21:59;10.30;1.00
1377;DHT22;682;52.502;13.488;2023-04-03T10:24:36;10.10;1.00
1377;DHT22;682;52.502;13.488;2023-04-03T10:27:10;9.90;1.00
1377;DHT22;682;52.502;13.488;2023-04-03T10:29:45;9.60;1.00
1377;DHT22;682;52.502;13.488;2023-04-03T10:32:41;9.40;1.00
1377;DHT22;682;52.502;13.488;2023-04-03T10:35:15;9.80;1.00
1377;DHT22;682;52.502;13.488;2023-04-03T10:37:55;10.00;1.00
1377;DHT22;682;52.502;13.488;2023-04-03T10:40:30;9.90;1.00
1377;DHT22;682;52.502;13.488;2023-04-03T10:43:06;9.80;1.00
1377;DHT22;682;52.502;13.488;2023-04-03T10:45:51;9.60;1.00
1377;DHT22;682;52.502;13.488;2023-04-03T10:48:28;9.50;1.00
1377;DHT22;682;52.502;13.488;2023-04-03T10:51:05;9.40;1.00
1377;DHT22;682;52.502;13.488;2023-04-03T10:53:40;9.30;1.00
1377;DHT22;682;52.502;13.488;2023-04-03T10:56:15;9.60;1.00
1377;DHT22;682;52.502;13.488;2023-04-03T10:58:49;10.10;1.00
1377;DHT22;682;52.502;13.488;2023-04-03T11:01:22;10.50;1.00
1377;DHT22;682;52.502;13.488;2023-04-03T11:03:53;10.40;1.00
1377;DHT22;682;52.502;13.488;2023-04-03T11:06:24;10.30;1.00
1377;DHT22;682;52.502;13.488;2023-04-03T11:08:55;10.00;1.00
1377;DHT22;682;52.502;13.488;2023-04-03T11:11:26;9.50;1.00
1377;DHT22;682;52.502;13.488;2023-04-03T11:14:00;9.30;1.00
1377;DHT22;682;52.502;13.488;2023-04-03T11:16:30;9.40;1.00
1377;DHT22;682;52.502;13.488;2023-04-03T11:19:03;9.60;1.00
1377;DHT22;682;52.502;13.488;2023-04-03T11:21:34;9.50;1.00
1377;DHT22;682;52.502;13.488;2023-04-03T11:24:05;9.50;1.00
1377;DHT22;682;52.502;13.488;2023-04-03T11:26:38;10.10;1.00
1377;DHT22;682;52.502;13.488;2023-04-03T11:29:12;10.50;1.00
1377;DHT22;682;52.502;13.488;2023-04-03T11:31:58;10.60;1.00
1377;DHT22;682;52.502;13.488;2023-04-03T11:34:34;10.20;1.00
1377;DHT22;682;52.502;13.488;2023-04-03T11:37:13;10.00;1.00
1377;DHT22;682;52.502;13.488;2023-04-03T11:39:49;10.10;1.00
1377;DHT22;682;52.502;13.488;2023-04-03T11:42:25;9.90;1.00
1377;DHT22;682;52.502;13.488;2023-04-03T11:45:17;9.80;1.00
1377;DHT22;682;52.502;13.488;2023-04-03T11:47:50;9.50;1.00
1377;DHT22;682;52.502;13.488;2023-04-03T11:50:39;9.40;1.00
1377;DHT22;682;52.502;13.488;2023-04-03T11:53:31;9.30;1.00
1377;DHT22;682;52.502;13.488;2023-04-03T11:56:01;9.60;1.00
1377;DHT22;682;52.502;13.488;2023-04-03T11:58:32;9.80;1.00
1377;DHT22;682;52.502;13.488;2023-04-03T12:01:11;9.90;1.00
1377;DHT22;682;52.502;13.488;2023-04-03T12:03:57;10.10;1.00
1377;DHT22;682;52.502;13.488;2023-04-03T12:12:37;9.90;1.00
1377;DHT22;682;52.502;13.488;2023-04-03T12:18:40;10.00;1.00
1377;DHT22;682;52.502;13.488;2023-04-03T12:21:10;10.70;1.00
1377;DHT22;682;52.502;13.488;2023-04-03T12:24:01;11.50;1.00
1377;DHT22;682;52.502;13.488;2023-04-03T12:26:41;12.30;1.00
1377;DHT22;682;52.502;13.488;2023-04-03T12:29:17;12.80;1.00
1377;DHT22;682;52.502;13.488;2023-04-03T12:31:54;13.00;1.00
1377;DHT22;682;52.502;13.488;2023-04-03T12:34:45;12.90;1.00
1377;DHT22;682;52.502;13.488;2023-04-03T12:37:34;13.60;1.00
1377;DHT22;682;52.502;13.488;2023-04-03T12:40:15;16.40;1.00
1377;DHT22;682;52.502;13.488;2023-04-03T12:43:01;17.00;1.00
1377;DHT22;682;52.502;13.488;2023-04-03T12:45:40;16.20;1.00
1377;DHT22;682;52.502;13.488;2023-04-03T12:48:14;14.90;1.00
1377;DHT22;682;52.502;13.488;2023-04-03T12:50:50;13.90;1.00
1377;DHT22;682;52.502;13.488;2023-04-03T12:53:23;13.00;1.00
1377;DHT22;682;52.502;13.488;2023-04-03T12:58:41;11.70;1.00
1377;DHT22;682;52.502;13.488;2023-04-03T13:01:30;11.40;1.00
1377;DHT22;682;52.502;13.488;2023-04-03T13:03:59;11.60;1.00
1377;DHT22;682;52.502;13.488;2023-04-03T13:06:38;11.50;1.00
1377;DHT22;682;52.502;13.488;2023-04-03T13:09:20;11.60;1.00
1377;DHT22;682;52.502;13.488;2023-04-03T13:11:49;11.80;1.00
1377;DHT22;682;52.502;13.488;2023-04-03T13:14:21;12.10;1.00
1377;DHT22;682;52.502;13.488;2023-04-03T13:16:55;11.70;1.00
1377;DHT22;682;52.502;13.488;2023-04-03T13:19:25;11.40;1.00
1377;DHT22;682;52.502;13.488;2023-04-03T13:21:58;11.50;1.00
1377;DHT22;682;52.502;13.488;2023-04-03T13:24:30;11.50;1.00
1377;DHT22;682;52.502;13.488;2023-04-03T13:27:00;11.50;1.00
1377;DHT22;682;52.502;13.488;2023-04-03T13:29:31;11.20;1.00
1377;DHT22;682;52.502;13.488;2023-04-03T13:32:00;10.80;1.00
1377;DHT22;682;52.502;13.488;2023-04-03T13:34:35;10.40;1.00
1377;DHT22;682;52.502;13.488;2023-04-03T13:37:04;10.10;1.00
1377;DHT22;682;52.502;13.488;2023-04-03T13:39:34;9.80;1.00
1377;DHT22;682;52.502;13.488;2023-04-03T13:42:15;9.50;1.00
1377;DHT22;682;52.502;13.488;2023-04-03T13:44:43;9.20;1.00
1377;DHT22;682;52.502;13.488;2023-04-03T13:47:19;8.90;1.00
1377;DHT22;682;52.502;13.488;2023-04-03T13:49:59;8.50;1.00
1377;DHT22;682;52.502;13.488;2023-04-03T13:52:31;8.50;1.00
1377;DHT22;682;52.502;13.488;2023-04-03T13:55:03;8.50;1.00
1377;DHT22;682;52.502;13.488;2023-04-03T13:57:50;8.80;1.00
1377;DHT22;682;52.502;13.488;2023-04-03T14:00:27;8.90;1.00
1377;DHT22;682;52.502;13.488;2023-04-03T14:02:56;9.30;1.00
1377;DHT22;682;52.502;13.488;2023-04-03T14:05:24;9.60;1.00
1377;DHT22;682;52.502;13.488;2023-04-03T14:07:54;10.00;1.00
1377;DHT22;682;52.502;13.488;2023-04-03T14:10:22;10.30;1.00
1377;DHT22;682;52.502;13.488;2023-04-03T14:12:49;10.90;1.00
1377;DHT22;682;52.502;13.488;2023-04-03T14:15:20;11.10;1.00
1377;DHT22;682;52.502;13.488;2023-04-03T14:17:49;11.40;1.00
1377;DHT22;682;52.502;13.488;2023-04-03T14:20:22;11.80;1.00
1377;DHT22;682;52.502;13.488;2023-04-03T14:22:49;11.90;1.00
1377;DHT22;682;52.502;13.488;2023-04-03T14:25:19;11.90;1.00
1377;DHT22;682;52.502;13.488;2023-04-03T14:27:48;11.40;1.00
1377;DHT22;682;52.502;13.488;2023-04-03T14:30:18;11.00;1.00
1377;DHT22;682;52.502;13.488;2023-04-03T14:32:46;10.90;1.00
1377;DHT22;682;52.502;13.488;2023-04-03T14:35:15;11.00;1.00
1377;DHT22;682;52.502;13.488;2023-04-03T14:37:45;11.20;1.00
1377;DHT22;682;52.502;13.488;2023-04-03T14:40:16;11.30;1.00
1377;DHT22;682;52.502;13.488;2023-04-03T14:42:45;11.00;1.00
1377;DHT22;682;52.502;13.488;2023-04-03T14:45:14;10.60;1.00
1377;DHT22;682;52.502;13.488;2023-04-03T14:47:47;10.40;1.00
1377;DHT22;682;52.502;13.488;2023-04-03T14:50:17;10.10;1.00
1377;DHT22;682;52.502;13.488;2023-04-03T14:52:47;9.90;1.00
1377;DHT22;682;52.502;13.488;2023-04-03T14:55:16;9.70;1.00
1377;DHT22;682;52.502;13.488;2023-04-03T14:57:44;9.60;1.00
1377;DHT22;682;52.502;13.488;2023-04-03T15:00:15;9.30;1.00
1377;DHT22;682;52.502;13.488;2023-04-03T15:02:43;9.10;1.00
1377;DHT22;682;52.502;13.488;2023-04-03T15:05:11;8.80;1.00
1377;DHT22;682;52.502;13.488;2023-04-03T15:07:44;8.60;1.00
1377;DHT22;682;52.502;13.488;2023-04-03T15:10:18;8.40;1.00
1377;DHT22;682;52.502;13.488;2023-04-03T15:12:48;8.20;1.00
1377;DHT22;682;52.502;13.488;2023-04-03T15:15:17;8.10;1.00
1377;DHT22;682;52.502;13.488;2023-04-03T15:17:46;8.00;1.00
1377;DHT22;682;52.502;13.488;2023-04-03T15:20:16;8.00;1.00
1377;DHT22;682;52.502;13.488;2023-04-03T15:22:43;7.80;1.00
1377;DHT22;682;52.502;13.488;2023-04-03T15:25:10;7.60;1.00
1377;DHT22;682;52.502;13.488;2023-04-03T15:27:38;7.50;1.00
1377;DHT22;682;52.502;13.488;2023-04-03T15:30:11;7.50;1.00
1377;DHT22;682;52.502;13.488;2023-04-03T15:32:39;7.50;1.00
1377;DHT22;682;52.502;13.488;2023-04-03T15:35:08;7.50;1.00
1377;DHT22;682;52.502;13.488;2023-04-03T15:37:38;7.30;1.00
1377;DHT22;682;52.502;13.488;2023-04-03T15:40:08;7.20;1.00
1377;DHT22;682;52.502;13.488;2023-04-03T15:42:35;7.20;1.00
1377;DHT22;682;52.502;13.488;2023-04-03T15:45:02;7.20;1.00
1377;DHT22;682;52.502;13.488;2023-04-03T15:47:32;7.20;1.00
1377;DHT22;682;52.502;13.488;2023-04-03T15:49:59;7.20;1.00
1377;DHT22;682;52.502;13.488;2023-04-03T15:52:28;7.20;1.00
1377;DHT22;682;52.502;13.488;2023-04-03T15:54:55;7.20;1.00
1377;DHT22;682;52.502;13.488;2023-04-03T15:57:21;7.20;1.00
1377;DHT22;682;52.502;13.488;2023-04-03T15:59:51;7.20;1.00
1377;DHT22;682;52.502;13.488;2023-04-03T16:02:22;7.10;1.00
1377;DHT22;682;52.502;13.488;2023-04-03T16:04:50;7.00;1.00
1377;DHT22;682;52.502;13.488;2023-04-03T16:07:20;6.80;1.00
1377;DHT22;682;52.502;13.488;2023-04-03T16:09:47;6.90;1.00
1377;DHT22;682;52.502;13.488;2023-04-03T16:12:14;7.10;1.00
1377;DHT22;682;52.502;13.488;2023-04-03T16:14:41;7.20;1.00
1377;DHT22;682;52.502;13.488;2023-04-03T16:17:07;7.40;1.00
1377;DHT22;682;52.502;13.488;2023-04-03T16:19:36;7.60;1.00
1377;DHT22;682;52.502;13.488;2023-04-03T16:22:07;7.90;1.00
1377;DHT22;682;52.502;13.488;2023-04-03T16:24:34;8.00;1.00
1377;DHT22;682;52.502;13.488;2023-04-03T16:27:02;8.00;1.00
1377;DHT22;682;52.502;13.488;2023-04-03T16:29:30;8.00;1.00
1377;DHT22;682;52.502;13.488;2023-04-03T16:31:58;8.00;1.00
1377;DHT22;682;52.502;13.488;2023-04-03T16:34:25;7.80;1.00
1377;DHT22;682;52.502;13.488;2023-04-03T16:36:55;7.80;1.00
1377;DHT22;682;52.502;13.488;2023-04-03T16:39:23;7.60;1.00
1377;DHT22;682;52.502;13.488;2023-04-03T16:41:50;7.50;1.00
1377;DHT22;682;52.502;13.488;2023-04-03T16:44:18;7.30;1.00
1377;DHT22;682;52.502;13.488;2023-04-03T16:46:45;7.30;1.00
1377;DHT22;682;52.502;13.488;2023-04-03T16:49:12;7.10;1.00
1377;DHT22;682;52.502;13.488;2023-04-03T16:51:39;7.00;1.00
1377;DHT22;682;52.502;13.488;2023-04-03T16:54:06;7.00;1.00
1377;DHT22;682;52.502;13.488;2023-04-03T16:56:36;6.90;1.00
1377;DHT22;682;52.502;13.488;2023-04-03T16:59:06;6.70;1.00
1377;DHT22;682;52.502;13.488;2023-04-03T17:01:33;6.70;1.00
1377;DHT22;682;52.502;13.488;2023-04-03T17:04:00;6.60;1.00
1377;DHT22;682;52.502;13.488;2023-04-03T17:06:27;6.60;1.00
1377;DHT22;682;52.502;13.488;2023-04-03T17:08:54;6.60;1.00